Time;durP1;ratioP1;P1;durP2;ratioP2;P2;SDS_P1;SDS_P2;PMS_P1;PMS_P2;Temp;Humidity;BMP_temperature;BMP_pressure;BME280_temperature;BME280_humidity;BME280_pressure;Samples;Min_cycle;Max_cycle;Signal;HPM_P1;HPM_P2
2022/12/02 00:01:36;;;;;;;36.37;19.70;;;1.80;99.90;;;;;;5024880;28;20302;-67
2022/12/02 00:04:09;;;;;;;32.30;18.23;;;1.80;99.90;;;;;;5022403;28;20450;-67
2022/12/02 00:06:35;;;;;;;33.87;19.27;;;1.80;99.90;;;;;;5022475;28;20203;-67
2022/12/02 00:09:32;;;;;;;28.57;18.47;;;1.70;99.90;;;;;;5023297;28;20620;-68
2022/12/02 00:12:00;;;;;;;33.83;18.70;;;1.70;99.90;;;;;;5021276;28;20475;-67
2022/12/02 00:14:29;;;;;;;36.70;18.40;;;1.70;99.90;;;;;;5023573;28;20434;-68
2022/12/02 00:16:55;;;;;;;30.90;18.03;;;1.70;99.90;;;;;;5027295;28;20928;-69
2022/12/02 00:19:22;;;;;;;36.87;18.77;;;1.70;99.90;;;;;;5027134;28;20943;-67
2022/12/02 00:21:49;;;;;;;38.37;19.27;;;1.70;99.90;;;;;;5027374;28;20410;-68
2022/12/02 00:24:15;;;;;;;32.63;19.87;;;1.70;99.90;;;;;;5025855;28;20738;-68
2022/12/02 00:26:40;;;;;;;36.63;21.07;;;1.70;99.90;;;;;;5021222;28;20430;-67
2022/12/02 00:29:06;;;;;;;34.23;19.20;;;1.70;99.90;;;;;;5023955;28;20441;-68
2022/12/02 00:31:32;;;;;;;31.93;18.83;;;1.70;99.90;;;;;;5022472;28;20199;-67
2022/12/02 00:33:59;;;;;;;39.43;17.33;;;1.70;99.90;;;;;;5022547;28;20248;-68
2022/12/02 00:36:25;;;;;;;38.13;19.50;;;1.70;99.90;;;;;;5026801;28;20175;-67
2022/12/02 00:38:51;;;;;;;36.50;18.00;;;1.70;99.90;;;;;;5021687;28;20453;-67
2022/12/02 00:41:16;;;;;;;36.80;19.43;;;1.70;99.90;;;;;;5028981;28;20537;-66
2022/12/02 00:46:32;;;;;;;36.70;18.67;;;1.80;99.90;;;;;;5025857;28;20195;-67
2022/12/02 00:48:58;;;;;;;36.33;19.77;;;1.80;99.90;;;;;;5025119;28;20955;-67
2022/12/02 00:51:24;;;;;;;36.10;20.90;;;1.80;99.90;;;;;;5024914;28;20461;-66
2022/12/02 00:53:50;;;;;;;35.93;19.00;;;1.80;99.90;;;;;;5025370;28;20552;-68
2022/12/02 00:56:16;;;;;;;36.67;19.40;;;1.80;99.90;;;;;;5025215;28;20430;-67
2022/12/02 00:58:41;;;;;;;38.97;20.40;;;1.80;99.90;;;;;;5023974;28;20184;-68
2022/12/02 01:01:07;;;;;;;30.93;17.77;;;1.80;99.90;;;;;;5021275;28;20191;-67
2022/12/02 01:03:33;;;;;;;35.87;19.77;;;1.80;99.90;;;;;;5027965;28;20179;-67
2022/12/02 01:05:58;;;;;;;36.40;19.97;;;1.80;99.90;;;;;;5023771;28;20433;-68
2022/12/02 01:08:26;;;;;;;35.13;19.40;;;1.80;99.90;;;;;;5027350;28;20199;-68
2022/12/02 01:10:55;;;;;;;36.03;21.30;;;1.90;99.90;;;;;;5021991;28;20207;-67
2022/12/02 01:13:22;;;;;;;33.90;19.93;;;1.90;99.90;;;;;;5022832;28;20434;-67
2022/12/02 01:15:47;;;;;;;31.70;20.10;;;1.80;99.90;;;;;;5028703;28;20426;-67
2022/12/02 01:18:13;;;;;;;38.93;21.17;;;1.80;99.90;;;;;;5029819;28;20978;-67
2022/12/02 01:20:38;;;;;;;28.60;17.63;;;1.80;99.90;;;;;;5025959;28;20222;-67
2022/12/02 01:23:04;;;;;;;37.23;19.87;;;1.80;99.90;;;;;;5021959;28;20182;-67
2022/12/02 01:25:29;;;;;;;37.83;19.67;;;1.80;99.90;;;;;;5023283;28;20207;-67
2022/12/02 01:27:55;;;;;;;32.93;21.33;;;1.80;99.90;;;;;;5026880;28;20187;-67
2022/12/02 01:30:21;;;;;;;39.43;23.47;;;1.90;99.90;;;;;;5023541;28;20214;-67
2022/12/02 01:32:46;;;;;;;40.13;19.80;;;1.80;99.90;;;;;;5024831;28;20211;-69
2022/12/02 01:35:12;;;;;;;36.60;20.13;;;1.80;99.90;;;;;;5022362;28;20234;-67
2022/12/02 01:37:37;;;;;;;31.73;19.70;;;1.80;99.90;;;;;;5026298;28;20225;-67
2022/12/02 01:40:05;;;;;;;38.77;18.97;;;1.80;99.90;;;;;;5024880;28;20650;-67
2022/12/02 01:42:31;;;;;;;40.50;20.40;;;1.80;99.90;;;;;;5020431;28;20186;-68
2022/12/02 01:44:57;;;;;;;35.17;19.37;;;1.80;99.90;;;;;;5019585;28;20438;-66
2022/12/02 01:47:23;;;;;;;36.13;20.67;;;1.80;99.90;;;;;;5020884;28;20518;-67
2022/12/02 01:49:48;;;;;;;32.40;17.93;;;1.80;99.90;;;;;;5023654;28;20311;-66
2022/12/02 01:52:14;;;;;;;33.30;17.90;;;1.80;99.90;;;;;;5023383;28;20180;-67
2022/12/02 01:54:40;;;;;;;37.17;19.57;;;1.80;99.90;;;;;;5026483;28;20175;-67
2022/12/02 01:57:09;;;;;;;35.60;19.03;;;1.80;99.90;;;;;;5027068;28;20281;-67
2022/12/02 01:59:35;;;;;;;37.80;19.40;;;1.80;99.90;;;;;;5020180;28;20243;-68
2022/12/02 02:02:01;;;;;;;30.80;19.80;;;1.80;99.90;;;;;;5025624;28;20768;-66
2022/12/02 02:04:26;;;;;;;29.20;18.87;;;1.80;99.90;;;;;;5021136;28;20172;-66
2022/12/02 02:06:52;;;;;;;32.90;18.30;;;1.80;99.90;;;;;;5023023;28;20270;-68
2022/12/02 02:09:18;;;;;;;36.77;19.87;;;1.80;99.90;;;;;;5022711;28;20200;-66
2022/12/02 02:11:43;;;;;;;36.63;18.77;;;1.80;99.90;;;;;;5022541;28;20172;-66
2022/12/02 02:14:11;;;;;;;39.53;18.43;;;1.80;99.90;;;;;;5022208;28;20176;-66
2022/12/02 02:16:37;;;;;;;33.43;17.90;;;1.80;99.90;;;;;;5028537;28;20622;-67
2022/12/02 02:19:05;;;;;;;32.93;19.67;;;1.80;99.90;;;;;;5028615;28;20901;-67
2022/12/02 02:21:35;;;;;;;33.07;19.17;;;1.90;99.90;;;;;;5028817;28;20437;-66
2022/12/02 02:24:01;;;;;;;31.33;17.70;;;1.90;99.90;;;;;;5022558;28;20537;-67
2022/12/02 02:26:27;;;;;;;33.77;18.23;;;1.90;99.90;;;;;;5016081;28;20904;-66
2022/12/02 02:28:52;;;;;;;34.53;20.53;;;1.80;99.90;;;;;;5022579;28;20641;-67
2022/12/02 02:31:18;;;;;;;33.97;16.80;;;1.80;99.90;;;;;;5021394;28;20584;-67
2022/12/02 02:33:45;;;;;;;30.63;18.80;;;1.80;99.90;;;;;;5024416;28;20221;-67
2022/12/02 02:36:11;;;;;;;29.80;18.23;;;1.80;99.90;;;;;;5021362;28;20431;-67
2022/12/02 02:38:37;;;;;;;35.73;19.63;;;1.80;99.90;;;;;;5016990;28;20453;-66
2022/12/02 02:41:03;;;;;;;34.03;19.33;;;1.70;99.90;;;;;;5023548;28;20206;-66
2022/12/02 02:43:30;;;;;;;29.73;17.83;;;1.80;99.90;;;;;;5021958;28;20435;-68
2022/12/02 02:45:57;;;;;;;34.70;21.50;;;1.70;99.90;;;;;;5023328;28;20438;-66
2022/12/02 02:48:24;;;;;;;35.27;19.20;;;1.80;99.90;;;;;;5022134;28;20500;-66
2022/12/02 02:50:50;;;;;;;35.97;18.27;;;1.80;99.90;;;;;;5021225;28;20458;-67
2022/12/02 02:53:18;;;;;;;31.33;18.97;;;1.80;99.90;;;;;;5024600;28;20504;-67
2022/12/02 02:55:44;;;;;;;36.97;18.40;;;1.70;99.90;;;;;;5022029;28;20435;-68
2022/12/02 02:58:13;;;;;;;32.27;19.10;;;1.70;99.90;;;;;;5023067;28;20435;-67
2022/12/02 03:00:46;;;;;;;33.07;18.83;;;1.70;99.90;;;;;;5015824;28;20871;-66
2022/12/02 03:03:13;;;;;;;33.00;18.20;;;1.70;99.90;;;;;;5025400;28;20422;-68
2022/12/02 03:05:40;;;;;;;34.60;17.97;;;1.70;99.90;;;;;;5024970;28;20500;-68
2022/12/02 03:08:06;;;;;;;35.37;18.33;;;1.70;99.90;;;;;;5022327;28;20441;-66
2022/12/02 03:10:32;;;;;;;33.90;20.13;;;1.70;99.90;;;;;;5021681;28;20505;-67
2022/12/02 03:12:58;;;;;;;27.60;15.57;;;1.70;99.90;;;;;;5022948;28;20473;-67
2022/12/02 03:15:26;;;;;;;28.77;18.83;;;1.60;99.90;;;;;;5028044;28;20763;-69
2022/12/02 03:17:52;;;;;;;31.70;17.80;;;1.60;99.90;;;;;;5021939;28;21002;-68
2022/12/02 03:20:19;;;;;;;38.30;17.70;;;1.60;99.90;;;;;;5024413;28;20845;-67
2022/12/02 03:22:45;;;;;;;27.70;15.87;;;1.60;99.90;;;;;;5019142;28;20937;-68
2022/12/02 03:25:11;;;;;;;34.03;16.50;;;1.70;99.90;;;;;;5022288;28;20433;-68
2022/12/02 03:27:37;;;;;;;37.13;20.40;;;1.60;99.90;;;;;;5014800;28;20638;-67
2022/12/02 03:30:04;;;;;;;33.97;19.30;;;1.60;99.90;;;;;;5024461;28;20465;-69
2022/12/02 03:32:29;;;;;;;28.87;16.40;;;1.60;99.90;;;;;;5025114;28;20203;-68
2022/12/02 03:34:55;;;;;;;29.10;18.23;;;1.60;99.90;;;;;;5021240;28;20499;-68
2022/12/02 03:37:21;;;;;;;30.30;17.13;;;1.70;99.90;;;;;;5025607;28;20254;-67
2022/12/02 03:39:48;;;;;;;35.17;18.40;;;1.70;99.90;;;;;;5024585;28;20634;-67
2022/12/02 03:42:14;;;;;;;31.67;16.80;;;1.70;99.90;;;;;;5021263;28;20430;-68
2022/12/02 03:44:40;;;;;;;35.73;19.63;;;1.70;99.90;;;;;;5024068;28;20448;-67
2022/12/02 03:47:06;;;;;;;35.93;20.53;;;1.80;99.90;;;;;;5018424;28;20491;-67
2022/12/02 03:49:33;;;;;;;30.90;18.20;;;1.70;99.90;;;;;;5024591;28;20449;-69
2022/12/02 03:51:59;;;;;;;26.33;15.57;;;1.70;99.90;;;;;;5019282;28;20520;-68
2022/12/02 03:54:24;;;;;;;29.30;16.70;;;1.60;99.90;;;;;;5023372;28;21288;-68
2022/12/02 03:56:50;;;;;;;26.23;17.00;;;1.60;99.90;;;;;;5019563;28;20175;-66
2022/12/02 03:59:26;;;;;;;28.40;15.43;;;1.60;99.90;;;;;;5017232;28;20776;-66
2022/12/02 04:01:52;;;;;;;31.00;18.13;;;1.60;99.90;;;;;;5020302;28;20191;-67
2022/12/02 04:04:18;;;;;;;23.33;14.90;;;1.60;99.90;;;;;;5021098;28;20426;-66
2022/12/02 04:06:43;;;;;;;28.33;17.20;;;1.60;99.90;;;;;;5021195;28;20951;-67
2022/12/02 04:09:09;;;;;;;28.20;16.20;;;1.60;99.90;;;;;;5018392;28;20310;-68
2022/12/02 04:11:34;;;;;;;28.10;16.00;;;1.60;99.90;;;;;;5027645;28;20598;-67
2022/12/02 04:14:00;;;;;;;35.27;16.23;;;1.60;99.90;;;;;;5024538;28;20182;-68
2022/12/02 04:16:26;;;;;;;24.63;14.40;;;1.70;99.90;;;;;;5021810;28;20223;-67
2022/12/02 04:18:51;;;;;;;26.87;18.10;;;1.70;99.90;;;;;;5030066;28;20179;-67
2022/12/02 04:21:17;;;;;;;28.43;15.70;;;1.60;99.90;;;;;;5030259;28;20669;-66
2022/12/02 04:23:42;;;;;;;26.13;16.67;;;1.70;99.90;;;;;;5029439;28;20180;-66
2022/12/02 04:26:08;;;;;;;25.37;15.63;;;1.60;99.90;;;;;;5026038;28;20230;-66
2022/12/02 04:28:34;;;;;;;26.07;15.07;;;1.60;99.90;;;;;;5022495;28;20167;-66
2022/12/02 04:31:00;;;;;;;28.00;14.40;;;1.70;99.90;;;;;;5022374;28;20503;-68
2022/12/02 04:33:25;;;;;;;27.40;14.50;;;1.70;99.90;;;;;;5028360;28;20176;-67
2022/12/02 04:35:51;;;;;;;25.70;16.00;;;1.60;99.90;;;;;;5023636;28;20325;-68
2022/12/02 04:38:16;;;;;;;28.87;15.67;;;1.70;99.90;;;;;;5027933;28;23277;-68
2022/12/02 04:40:42;;;;;;;20.13;13.33;;;1.70;99.90;;;;;;5022789;28;20275;-67
2022/12/02 04:43:07;;;;;;;25.90;16.20;;;1.70;99.90;;;;;;5023257;28;20184;-67
2022/12/02 04:45:33;;;;;;;24.67;15.10;;;1.70;99.90;;;;;;5023845;28;20175;-68
2022/12/02 04:47:58;;;;;;;23.07;14.80;;;1.70;99.90;;;;;;5022443;28;20238;-68
2022/12/02 04:50:24;;;;;;;30.27;16.20;;;1.70;99.90;;;;;;5027546;28;20204;-66
2022/12/02 04:52:50;;;;;;;27.87;14.27;;;1.70;99.90;;;;;;5023145;28;20175;-67
2022/12/02 04:55:15;;;;;;;25.60;13.70;;;1.80;99.90;;;;;;5026932;28;20184;-67
2022/12/02 04:57:41;;;;;;;23.17;15.93;;;1.80;99.90;;;;;;5024032;28;20267;-66
2022/12/02 05:00:08;;;;;;;22.23;12.50;;;1.80;99.90;;;;;;5021578;28;20204;-68
2022/12/02 05:02:33;;;;;;;23.83;15.23;;;1.80;99.90;;;;;;5027671;28;20227;-68
2022/12/02 05:04:59;;;;;;;23.90;15.17;;;1.80;99.90;;;;;;5022354;28;20537;-66
2022/12/02 05:07:25;;;;;;;24.70;13.47;;;1.90;99.90;;;;;;5023327;28;20306;-67
2022/12/02 05:09:50;;;;;;;18.73;11.70;;;1.90;99.90;;;;;;5023965;28;20211;-66
2022/12/02 05:12:16;;;;;;;22.13;12.63;;;1.90;99.90;;;;;;5022150;28;20266;-67
2022/12/02 05:14:42;;;;;;;26.67;14.63;;;1.90;99.90;;;;;;5028191;28;20175;-67
2022/12/02 05:17:07;;;;;;;21.30;13.70;;;1.90;99.90;;;;;;5029302;28;20518;-67
2022/12/02 05:19:33;;;;;;;26.80;13.70;;;1.90;99.90;;;;;;5027880;28;20627;-68
2022/12/02 05:21:58;;;;;;;25.30;13.07;;;1.90;99.90;;;;;;5039564;23;23066;-66
2022/12/02 05:24:24;;;;;;;23.73;13.73;;;1.90;99.90;;;;;;5028142;28;20238;-66
2022/12/02 05:26:50;;;;;;;25.10;12.10;;;1.90;99.90;;;;;;5025221;28;20184;-66
2022/12/02 05:29:15;;;;;;;20.13;12.37;;;1.90;99.90;;;;;;5023473;28;20179;-66
2022/12/02 05:31:41;;;;;;;20.53;12.83;;;1.90;99.90;;;;;;5025769;28;20960;-65
2022/12/02 05:34:06;;;;;;;24.37;13.50;;;1.90;99.90;;;;;;5028099;28;20175;-65
2022/12/02 05:36:32;;;;;;;23.00;13.17;;;1.90;99.90;;;;;;5025638;28;20266;-66
2022/12/02 05:38:58;;;;;;;22.70;13.73;;;1.90;99.90;;;;;;5025769;28;20238;-66
2022/12/02 05:41:23;;;;;;;17.17;11.17;;;1.90;99.90;;;;;;5024824;28;20249;-66
2022/12/02 05:43:49;;;;;;;17.80;11.90;;;1.90;99.90;;;;;;5023889;28;20187;-66
2022/12/02 05:46:16;;;;;;;20.60;12.83;;;1.90;99.90;;;;;;5026806;28;20178;-66
2022/12/02 05:48:43;;;;;;;20.80;12.90;;;1.90;99.90;;;;;;5027196;28;20226;-66
2022/12/02 05:51:15;;;;;;;23.80;12.97;;;1.90;99.90;;;;;;5024186;28;20461;-66
2022/12/02 05:53:42;;;;;;;21.20;12.73;;;1.90;99.90;;;;;;5026645;28;20449;-66
2022/12/02 05:56:34;;;;;;;21.47;13.00;;;1.90;99.90;;;;;;5026685;28;20935;-66
2022/12/02 05:59:04;;;;;;;23.67;14.27;;;2.00;99.90;;;;;;5020641;28;20940;-66
2022/12/02 06:01:32;;;;;;;24.33;14.93;;;1.90;99.90;;;;;;5025417;28;20891;-65
2022/12/02 06:03:58;;;;;;;21.37;13.37;;;1.90;99.90;;;;;;5026536;28;20456;-65
2022/12/02 06:06:33;;;;;;;23.10;13.67;;;1.90;99.90;;;;;;5030588;28;20438;-65
2022/12/02 06:08:59;;;;;;;18.20;13.17;;;2.00;99.90;;;;;;5024911;28;20761;-65
2022/12/02 06:11:28;;;;;;;24.47;13.10;;;2.00;99.90;;;;;;5026335;28;20466;-67
2022/12/02 06:13:59;;;;;;;23.40;13.50;;;1.90;99.90;;;;;;5025865;28;20439;-65
2022/12/02 06:16:27;;;;;;;24.30;12.63;;;1.90;99.90;;;;;;5027636;28;21196;-66
2022/12/02 06:18:53;;;;;;;24.10;14.07;;;1.90;99.90;;;;;;5023599;28;20422;-65
2022/12/02 06:21:21;;;;;;;27.33;15.27;;;1.90;99.90;;;;;;5026674;28;20454;-66
2022/12/02 06:23:50;;;;;;;19.43;11.13;;;1.90;99.90;;;;;;5022312;28;20503;-66
2022/12/02 06:26:18;;;;;;;20.63;13.40;;;1.90;99.90;;;;;;5024552;28;20430;-66
2022/12/02 06:28:47;;;;;;;23.37;13.77;;;1.90;99.90;;;;;;5022373;28;20886;-66
2022/12/02 06:31:18;;;;;;;23.23;12.40;;;1.90;99.90;;;;;;5026210;28;20454;-66
2022/12/02 06:33:47;;;;;;;18.90;13.10;;;1.90;99.90;;;;;;5026583;28;20933;-66
2022/12/02 06:36:28;;;;;;;19.63;14.40;;;1.90;99.90;;;;;;5026361;28;20516;-65
2022/12/02 06:38:57;;;;;;;22.60;13.83;;;1.90;99.90;;;;;;5020723;28;20446;-66
2022/12/02 06:41:28;;;;;;;17.60;13.60;;;1.90;99.90;;;;;;5026981;28;20458;-65
2022/12/02 06:46:45;;;;;;;20.80;12.10;;;2.00;99.90;;;;;;5022895;28;20524;-66
2022/12/02 06:49:22;;;;;;;23.67;13.40;;;2.00;99.90;;;;;;5024843;28;20438;-66
2022/12/02 06:51:55;;;;;;;19.90;12.43;;;2.00;99.90;;;;;;5026193;28;20465;-66
2022/12/02 06:54:26;;;;;;;20.60;12.57;;;2.00;99.90;;;;;;5022160;28;20425;-66
2022/12/02 06:56:52;;;;;;;21.20;12.77;;;2.00;99.90;;;;;;5024456;28;20438;-67
2022/12/02 06:59:22;;;;;;;21.30;12.33;;;2.00;99.90;;;;;;5025080;28;20560;-66
2022/12/02 07:01:47;;;;;;;17.40;11.60;;;2.00;99.90;;;;;;5022914;28;20552;-66
2022/12/02 07:04:42;;;;;;;22.30;15.03;;;2.00;99.90;;;;;;5024283;28;20494;-66
2022/12/02 07:07:28;;;;;;;23.87;12.60;;;2.00;99.90;;;;;;5021127;28;20243;-66
2022/12/02 07:10:01;;;;;;;19.97;13.17;;;2.00;99.90;;;;;;5025307;28;20645;-66
2022/12/02 07:12:41;;;;;;;21.67;12.57;;;2.00;99.90;;;;;;5022166;28;20709;-66
2022/12/02 07:15:27;;;;;;;20.43;14.40;;;2.00;99.90;;;;;;5022575;28;20512;-66
2022/12/02 07:17:58;;;;;;;20.73;13.73;;;2.00;99.90;;;;;;5024882;28;20441;-66
2022/12/02 07:20:34;;;;;;;25.60;14.60;;;2.00;99.90;;;;;;5025020;28;20441;-66
2022/12/02 07:23:22;;;;;;;22.57;12.40;;;2.00;99.90;;;;;;5001668;28;20488;-66
2022/12/02 07:25:58;;;;;;;26.10;12.70;;;2.00;99.90;;;;;;5026190;28;20534;-67
2022/12/02 07:28:39;;;;;;;20.97;11.53;;;2.00;99.90;;;;;;5022952;28;20438;-66
2022/12/02 07:31:26;;;;;;;19.50;11.90;;;2.00;99.90;;;;;;4991662;28;20470;-65
2022/12/02 07:33:52;;;;;;;23.03;14.03;;;2.00;99.90;;;;;;5002150;28;20843;-66
2022/12/02 07:36:18;;;;;;;21.17;12.03;;;2.00;99.90;;;;;;5024446;28;20784;-66
2022/12/02 07:38:44;;;;;;;20.43;12.73;;;2.10;99.90;;;;;;5023097;28;20469;-66
2022/12/02 07:41:10;;;;;;;18.87;12.10;;;2.10;99.90;;;;;;5026521;28;20466;-66
2022/12/02 07:43:35;;;;;;;18.00;13.27;;;2.00;99.90;;;;;;5024295;28;20675;-65
2022/12/02 07:46:01;;;;;;;27.90;13.83;;;2.00;99.90;;;;;;5026524;28;20460;-65
2022/12/02 07:48:27;;;;;;;19.57;13.60;;;2.00;99.90;;;;;;5025925;28;20270;-66
2022/12/02 07:50:52;;;;;;;21.27;13.23;;;1.90;99.90;;;;;;5022504;28;20207;-65
2022/12/02 07:53:18;;;;;;;20.10;12.63;;;1.90;99.90;;;;;;5025284;28;20279;-65
2022/12/02 07:55:43;;;;;;;18.23;11.63;;;1.90;99.90;;;;;;5025673;28;20238;-66
2022/12/02 07:58:09;;;;;;;18.13;11.53;;;1.90;99.90;;;;;;5024145;28;20233;-66
2022/12/02 08:00:35;;;;;;;20.20;11.53;;;1.90;99.90;;;;;;5023204;28;20526;-66
2022/12/02 08:03:01;;;;;;;22.83;13.63;;;1.90;99.90;;;;;;5025266;28;20203;-66
2022/12/02 08:05:27;;;;;;;24.83;13.30;;;2.00;99.90;;;;;;5023134;28;20939;-67
2022/12/02 08:07:53;;;;;;;24.47;12.60;;;2.00;99.90;;;;;;5024015;28;20868;-66
2022/12/02 08:10:19;;;;;;;17.50;11.60;;;2.00;99.90;;;;;;5026999;28;20508;-65
2022/12/02 08:12:45;;;;;;;22.10;13.53;;;1.90;99.90;;;;;;5025572;28;20450;-66
2022/12/02 08:15:12;;;;;;;17.47;11.10;;;1.90;99.90;;;;;;5026983;28;20207;-67
2022/12/02 08:17:38;;;;;;;26.90;12.90;;;1.80;99.90;;;;;;5026750;28;20179;-67
2022/12/02 08:20:06;;;;;;;25.80;12.80;;;1.80;99.90;;;;;;5026745;28;20735;-65
2022/12/02 08:22:32;;;;;;;21.70;12.63;;;1.90;99.90;;;;;;5026699;28;20503;-67
2022/12/02 08:24:58;;;;;;;22.53;12.00;;;1.90;99.90;;;;;;5023715;28;20442;-66
2022/12/02 08:27:23;;;;;;;23.70;12.53;;;1.90;99.90;;;;;;5021644;28;20176;-67
2022/12/02 08:29:49;;;;;;;26.07;16.37;;;1.90;99.90;;;;;;5021778;28;20207;-65
2022/12/02 08:32:16;;;;;;;19.93;12.17;;;1.90;99.90;;;;;;5024489;28;20309;-64
2022/12/02 08:34:41;;;;;;;22.33;13.23;;;1.90;99.90;;;;;;5024925;28;20439;-65
2022/12/02 08:37:07;;;;;;;19.80;12.40;;;1.90;99.90;;;;;;5022224;28;20443;-65
2022/12/02 08:39:33;;;;;;;23.47;12.97;;;1.90;99.90;;;;;;5021865;28;20211;-66
2022/12/02 08:41:59;;;;;;;14.47;10.77;;;1.90;99.90;;;;;;5023193;28;20196;-65
2022/12/02 08:44:24;;;;;;;22.00;11.50;;;1.90;99.90;;;;;;5024772;28;20188;-66
2022/12/02 08:46:50;;;;;;;26.73;13.17;;;2.00;99.90;;;;;;5024942;28;20453;-65
2022/12/02 08:49:16;;;;;;;27.30;13.20;;;2.00;99.90;;;;;;5023134;28;20176;-65
2022/12/02 08:51:41;;;;;;;18.50;11.87;;;2.00;99.90;;;;;;5018238;28;20582;-65
2022/12/02 08:54:07;;;;;;;20.70;11.80;;;2.00;99.90;;;;;;5022700;28;20215;-68
2022/12/02 08:56:32;;;;;;;22.60;12.57;;;2.10;99.90;;;;;;5026498;28;20423;-67
2022/12/02 08:58:58;;;;;;;23.83;12.33;;;2.00;99.90;;;;;;5028324;28;20698;-65
2022/12/02 09:01:24;;;;;;;25.60;11.83;;;2.00;99.90;;;;;;5026498;28;20286;-67
2022/12/02 09:03:49;;;;;;;19.53;12.97;;;2.10;99.90;;;;;;5018855;28;20679;-66
2022/12/02 09:06:15;;;;;;;16.60;11.10;;;2.10;99.90;;;;;;5026638;28;20214;-65
2022/12/02 09:08:40;;;;;;;19.30;11.73;;;2.10;99.90;;;;;;5022206;28;20648;-66
2022/12/02 09:11:06;;;;;;;23.63;12.13;;;2.10;99.90;;;;;;5027156;28;20215;-65
2022/12/02 09:13:31;;;;;;;19.37;11.47;;;2.10;99.90;;;;;;5026588;28;20222;-65
2022/12/02 09:15:57;;;;;;;23.30;13.50;;;2.10;99.90;;;;;;5026573;28;20222;-67
2022/12/02 09:18:24;;;;;;;24.83;11.53;;;2.20;99.90;;;;;;5029628;28;20366;-65
2022/12/02 09:20:49;;;;;;;20.40;12.57;;;2.20;99.90;;;;;;5028020;28;20181;-66
2022/12/02 09:23:15;;;;;;;18.43;12.87;;;2.30;99.90;;;;;;5027173;28;20474;-66
2022/12/02 09:25:40;;;;;;;21.60;12.77;;;2.20;99.90;;;;;;5023824;28;20187;-66
2022/12/02 09:28:06;;;;;;;22.20;12.83;;;2.30;99.90;;;;;;5025548;28;20496;-66
2022/12/02 09:30:32;;;;;;;22.93;13.13;;;2.40;99.90;;;;;;5027648;28;20195;-66
2022/12/02 09:32:58;;;;;;;28.30;12.97;;;2.40;99.90;;;;;;5027126;28;20928;-67
2022/12/02 09:35:23;;;;;;;20.50;13.23;;;2.40;99.90;;;;;;5026999;28;20512;-67
2022/12/02 09:37:49;;;;;;;22.70;13.37;;;2.40;99.90;;;;;;5027183;28;20179;-67
2022/12/02 09:40:15;;;;;;;23.13;13.10;;;2.30;99.90;;;;;;5025787;28;20673;-67
2022/12/02 09:42:41;;;;;;;23.50;12.63;;;2.40;99.90;;;;;;5025611;28;20199;-69
2022/12/02 09:45:06;;;;;;;22.80;12.20;;;2.50;99.90;;;;;;5028006;28;20813;-67
2022/12/02 09:47:33;;;;;;;20.97;11.77;;;2.40;99.90;;;;;;5027208;28;20198;-66
2022/12/02 09:49:58;;;;;;;28.53;14.43;;;2.30;99.90;;;;;;5025780;28;20992;-66
2022/12/02 09:52:25;;;;;;;24.83;14.20;;;2.40;99.90;;;;;;5024435;28;20462;-66
2022/12/02 09:54:52;;;;;;;20.93;12.10;;;2.50;99.90;;;;;;5025401;28;20195;-67
2022/12/02 09:57:24;;;;;;;26.43;15.97;;;2.40;99.90;;;;;;5025692;28;20444;-66
2022/12/02 09:59:51;;;;;;;24.30;11.90;;;2.40;99.90;;;;;;4992588;28;20799;-67
2022/12/02 10:02:46;;;;;;;24.50;11.20;;;2.40;99.90;;;;;;5025904;28;20532;-66
2022/12/02 10:05:21;;;;;;;22.37;12.27;;;2.30;99.90;;;;;;5026120;28;20888;-66
2022/12/02 10:07:49;;;;;;;22.83;12.90;;;2.30;99.90;;;;;;5006868;28;20442;-66
2022/12/02 10:10:21;;;;;;;22.93;13.23;;;2.30;99.90;;;;;;5025628;28;20466;-67
2022/12/02 10:12:47;;;;;;;19.87;13.00;;;2.30;99.90;;;;;;5024489;28;20957;-67
2022/12/02 10:15:16;;;;;;;21.37;12.07;;;2.40;99.90;;;;;;5029111;28;20411;-66
2022/12/02 10:17:44;;;;;;;22.20;13.90;;;2.30;99.90;;;;;;5023671;28;20513;-65
2022/12/02 10:20:17;;;;;;;25.40;12.73;;;2.30;99.90;;;;;;5028700;28;20437;-65
2022/12/02 10:23:04;;;;;;;22.63;14.60;;;2.30;99.90;;;;;;5027284;28;20588;-66
2022/12/02 10:25:31;;;;;;;24.80;14.33;;;2.30;99.90;;;;;;5024976;28;20867;-66
2022/12/02 10:27:57;;;;;;;23.00;12.93;;;2.30;99.90;;;;;;5007609;28;20495;-66
2022/12/02 10:30:25;;;;;;;20.93;11.80;;;2.30;99.90;;;;;;5028499;28;21062;-66
2022/12/02 10:32:59;;;;;;;22.60;14.80;;;2.20;99.90;;;;;;5028037;28;20198;-67
2022/12/02 10:35:26;;;;;;;18.70;11.57;;;2.20;99.90;;;;;;5024484;28;20580;-66
2022/12/02 10:37:52;;;;;;;27.63;14.90;;;2.20;99.90;;;;;;5028370;28;20937;-65
2022/12/02 10:40:21;;;;;;;19.60;12.63;;;2.10;99.90;;;;;;5028093;28;20414;-65
2022/12/02 10:43:04;;;;;;;22.13;12.77;;;2.10;99.90;;;;;;5028087;28;20200;-65
2022/12/02 10:45:30;;;;;;;27.47;14.30;;;2.00;99.90;;;;;;5028310;28;20937;-65
2022/12/02 10:48:16;;;;;;;25.20;13.43;;;2.00;99.90;;;;;;5027401;28;20442;-65
2022/12/02 10:50:42;;;;;;;23.77;15.20;;;2.00;99.90;;;;;;5017382;28;20211;-65
2022/12/02 10:53:14;;;;;;;25.80;13.60;;;2.10;99.90;;;;;;5028027;28;20441;-67
2022/12/02 10:55:40;;;;;;;23.40;14.40;;;2.20;99.90;;;;;;5027516;28;20472;-66
2022/12/02 10:58:09;;;;;;;26.90;14.20;;;2.20;99.90;;;;;;5027318;28;20419;-65
2022/12/02 11:00:35;;;;;;;27.07;12.53;;;2.20;99.90;;;;;;5027391;28;20183;-66
2022/12/02 11:03:04;;;;;;;24.07;14.20;;;2.20;99.90;;;;;;5027799;28;20445;-66
2022/12/02 11:05:32;;;;;;;35.90;13.57;;;2.30;99.90;;;;;;5025513;28;20176;-66
2022/12/02 11:08:24;;;;;;;27.30;15.43;;;2.30;99.90;;;;;;5027335;28;20723;-66
2022/12/02 11:11:08;;;;;;;28.53;13.87;;;2.30;99.90;;;;;;5027643;28;20465;-66
2022/12/02 11:14:11;;;;;;;29.37;17.13;;;2.30;99.90;;;;;;5021736;28;20415;-66
2022/12/02 11:16:36;;;;;;;30.63;15.53;;;2.20;99.90;;;;;;4979068;28;20865;-66
2022/12/02 11:19:08;;;;;;;23.73;13.93;;;2.20;99.90;;;;;;5026940;28;20426;-66
2022/12/02 11:21:33;;;;;;;34.97;14.90;;;2.20;99.90;;;;;;5026221;28;20222;-66
2022/12/02 11:24:31;;;;;;;28.73;16.80;;;2.20;99.90;;;;;;5028230;28;20410;-66
2022/12/02 11:27:01;;;;;;;31.43;15.43;;;2.20;99.90;;;;;;4980243;28;20203;-66
2022/12/02 11:29:43;;;;;;;24.80;13.97;;;2.20;99.90;;;;;;5028060;28;20836;-66
2022/12/02 11:32:37;;;;;;;33.30;15.70;;;2.20;99.90;;;;;;5012920;28;20521;-66
2022/12/02 11:35:04;;;;;;;36.00;15.87;;;2.20;99.90;;;;;;5027097;28;20429;-66
2022/12/02 11:37:33;;;;;;;30.03;18.20;;;2.10;99.90;;;;;;5027979;28;20918;-67
2022/12/02 11:40:18;;;;;;;26.60;14.57;;;2.20;99.90;;;;;;5009453;28;20972;-66
2022/12/02 11:42:45;;;;;;;39.43;18.17;;;2.10;99.90;;;;;;4990352;28;20446;-66
2022/12/02 11:45:16;;;;;;;30.07;17.83;;;2.10;99.90;;;;;;5027710;28;20456;-66
2022/12/02 11:48:03;;;;;;;27.47;14.77;;;2.10;99.90;;;;;;5028502;28;20414;-67
2022/12/02 11:50:33;;;;;;;25.47;14.23;;;2.10;99.90;;;;;;5027584;28;20901;-66
2022/12/02 11:53:03;;;;;;;30.73;17.27;;;2.20;99.90;;;;;;5027967;28;20430;-65
2022/12/02 11:55:40;;;;;;;36.47;19.40;;;2.20;99.90;;;;;;5018764;28;20410;-66
2022/12/02 11:58:29;;;;;;;27.97;15.00;;;2.20;99.90;;;;;;5014952;28;20407;-65
2022/12/02 12:01:04;;;;;;;32.27;16.17;;;2.10;99.90;;;;;;5016411;28;20438;-66
2022/12/02 12:03:30;;;;;;;27.87;17.67;;;2.00;99.90;;;;;;5027853;28;21131;-66
2022/12/02 12:06:09;;;;;;;28.37;18.87;;;2.00;99.90;;;;;;5027096;28;20410;-66
2022/12/02 12:08:37;;;;;;;23.37;15.20;;;2.00;99.90;;;;;;5027213;28;20449;-66
2022/12/02 12:11:29;;;;;;;36.57;16.73;;;2.10;99.90;;;;;;5027320;28;20453;-66
2022/12/02 12:13:59;;;;;;;31.77;15.00;;;2.10;99.90;;;;;;5024180;28;20418;-66
2022/12/02 12:16:25;;;;;;;26.30;16.10;;;2.10;99.90;;;;;;5027347;28;20398;-66
2022/12/02 12:18:51;;;;;;;27.30;14.53;;;2.10;99.90;;;;;;5027177;28;20410;-66
2022/12/02 12:21:47;;;;;;;28.13;17.40;;;2.10;99.90;;;;;;5027150;28;20446;-67
2022/12/02 12:24:24;;;;;;;38.60;18.17;;;2.00;99.90;;;;;;5006538;28;20522;-65
2022/12/02 12:27:02;;;;;;;30.27;17.00;;;2.00;99.90;;;;;;5027050;28;20414;-65
2022/12/02 12:29:32;;;;;;;26.80;16.33;;;2.00;99.90;;;;;;5026911;28;20429;-66
2022/12/02 12:31:58;;;;;;;27.60;14.80;;;2.00;99.90;;;;;;5012903;28;21054;-65
2022/12/02 12:34:24;;;;;;;32.70;16.63;;;2.00;99.90;;;;;;5031173;28;20793;-66
2022/12/02 12:36:50;;;;;;;33.30;17.80;;;1.90;99.90;;;;;;5030987;28;20436;-66
2022/12/02 12:39:16;;;;;;;29.37;14.97;;;1.90;99.90;;;;;;5030910;28;20418;-66
2022/12/02 12:41:43;;;;;;;31.97;17.83;;;2.00;99.90;;;;;;5016564;28;20226;-66
2022/12/02 12:44:08;;;;;;;26.80;14.37;;;1.90;99.90;;;;;;5030786;28;20437;-66
2022/12/02 12:46:34;;;;;;;31.37;17.60;;;2.00;99.90;;;;;;5017734;28;20411;-67
2022/12/02 12:48:59;;;;;;;27.10;13.70;;;1.90;99.90;;;;;;5030929;28;20802;-66